Estación Meteorológica Peña el Pijo (Robertgarden) [ 09/28/20 19:58:18 CEST ]

Fecha Hora Presion(HPa) Temp (°C) Humedad % Rocio (°C) Viento ( m/s) Direccion Lluvia 1Hora(mm) Lluvia 24H(mm) LLuvia Total(mm)
2020-Sep-26 01:09:50 1013.100 9.9 68 4.3 - N     89.61
2020-Sep-26 02:09:30 1012.800 8.9 70 3.7 - N     89.61
2020-Sep-26 03:09:17 1012.500 8.2 70 3.1 - N     89.61
2020-Sep-26 04:09:24 1011.800 7.4 70 2.3 - N     89.61
2020-Sep-26 05:09:38 1011.500 7.2 71 2.3 - N     89.61
2020-Sep-26 06:09:07 1011.300 7.2 70 2.1 - N     89.61
2020-Sep-26 07:09:45 1011.000 6.3 73 1.8 - N     89.61
2020-Sep-26 08:09:10 1010.900 6.1 75 2.0 - N     89.61
2020-Sep-26 09:09:28 1011.100 9.6 73 5.0 - N     89.61
2020-Sep-26 10:09:25 1010.700 18.4 40 4.6 - N     89.61
2020-Sep-26 11:09:50 1011.200 19.5 35 3.5 - N     89.61
2020-Sep-26 12:09:35 1010.800 21.2 32 3.8 - N     89.61
2020-Sep-26 13:09:36 1010.500 22.1 31 4.2 - N     89.61
2020-Sep-26 14:09:39 1009.800 22.1 30 3.8 - N     89.61
2020-Sep-26 15:09:47 1009.100 21.1 31 3.3 - N     89.61
2020-Sep-26 16:09:22 1008.600 21.2 32 3.8 - N     89.61
2020-Sep-26 17:09:59 1008.300 20.8 33 3.8 - N     89.61
2020-Sep-26 18:09:17 1008.100 19.4 35 3.4 - N     89.61
2020-Sep-26 19:09:35 1008.200 18.4 38 3.8 - N     89.61
2020-Sep-26 20:09:32 1008.000 16.8 41 3.4 - N     89.61
2020-Sep-26 21:09:42 1008.000 16.1 43 3.4 - N     89.61
2020-Sep-26 22:09:32 1007.800 15.3 45 3.4 - N     89.61
2020-Sep-26 23:09:13 1007.900 14.9 46 3.3 - N     89.61

Temperatura Máxima:22°    Temperatura Mínima:
Presión Máxima:1013.100 Hpa    Presión Mínima:1007.800 Hpa


Volver